createdAt,value
2023-02-11T00:00:35.354Z,-1.14
2023-02-11T00:03:24.228Z,-1.18
2023-02-11T00:06:14.636Z,-1.28
2023-02-11T00:09:03.960Z,-1.27
2023-02-11T00:11:52.397Z,-1.33
2023-02-11T00:14:40.870Z,-1.33
2023-02-11T00:17:29.459Z,-1.28
2023-02-11T00:20:17.895Z,-1.23
2023-02-11T00:23:07.734Z,-1.24
2023-02-11T00:25:56.205Z,-1.26
2023-02-11T00:28:45.061Z,-2.03
2023-02-11T00:31:34.201Z,-1.27
2023-02-11T00:34:22.775Z,-1.38
2023-02-11T00:37:12.095Z,-1.27
2023-02-11T00:40:03.248Z,-1.28
2023-02-11T00:42:52.922Z,-1.33
2023-02-11T00:45:41.436Z,-1.19
2023-02-11T00:48:29.938Z,-1.32
2023-02-11T00:51:18.619Z,-1.35
2023-02-11T00:54:07.480Z,-1.35
2023-02-11T00:56:57.371Z,-1.36
2023-02-11T00:59:45.804Z,-1.40
2023-02-11T01:02:34.439Z,-1.66
2023-02-11T01:05:24.584Z,-1.60
2023-02-11T01:08:13.381Z,-1.65
2023-02-11T01:11:03.595Z,-1.58
2023-02-11T01:13:53.627Z,-1.43
2023-02-11T01:16:42.239Z,-1.41
2023-02-11T01:19:30.672Z,-1.54
2023-02-11T01:22:19.149Z,-1.35
2023-02-11T01:25:08.280Z,-1.55
2023-02-11T01:27:56.808Z,-1.22
2023-02-11T01:30:46.784Z,-1.26
2023-02-11T01:33:35.279Z,-1.10
2023-02-11T01:36:23.800Z,-1.36
2023-02-11T01:39:12.331Z,-1.36
2023-02-11T01:42:00.923Z,-1.28
2023-02-11T01:44:52.434Z,-1.19
2023-02-11T01:47:42.229Z,-1.10
2023-02-11T01:50:30.731Z,-1.10
2023-02-11T01:53:36.814Z,-1.06
2023-02-11T01:56:43.890Z,-1.15
2023-02-11T01:59:34.689Z,-1.07
2023-02-11T02:02:26.263Z,-1.34
2023-02-11T02:05:23.220Z,-1.09
2023-02-11T02:08:18.529Z,-1.09
2023-02-11T02:11:07.448Z,-1.16
2023-02-11T02:13:55.936Z,-1.06
2023-02-11T02:16:45.931Z,-1.13
2023-02-11T02:20:04.960Z,-1.45
2023-02-11T02:23:36.915Z,-1.42
2023-02-11T02:26:56.778Z,-1.39
2023-02-11T02:30:18.414Z,-1.36
2023-02-11T02:33:25.623Z,-1.24
2023-02-11T02:36:18.893Z,-1.16
2023-02-11T02:39:10.208Z,-1.10
2023-02-11T02:41:59.271Z,-1.08
2023-02-11T02:44:50.179Z,-1.10
2023-02-11T02:47:38.717Z,-1.06
2023-02-11T02:50:31.994Z,-0.95
2023-02-11T02:53:26.170Z,-0.93
2023-02-11T02:56:20.271Z,-1.28
2023-02-11T02:59:26.856Z,-0.95
2023-02-11T03:02:19.487Z,-0.81
2023-02-11T03:05:13.043Z,-0.79
2023-02-11T03:08:09.181Z,-0.66
2023-02-11T03:10:58.378Z,-0.76
2023-02-11T03:13:47.323Z,-0.78
2023-02-11T03:16:39.186Z,-0.82
2023-02-11T03:19:30.169Z,-0.92
2023-02-11T03:22:21.227Z,-0.99
2023-02-11T03:25:11.218Z,-1.03
2023-02-11T03:28:04.767Z,-1.09
2023-02-11T03:30:57.213Z,-1.03
2023-02-11T03:33:51.983Z,-1.09
2023-02-11T03:36:45.900Z,-1.07
2023-02-11T03:39:37.905Z,-1.73
2023-02-11T03:42:31.197Z,-1.14
2023-02-11T03:45:21.666Z,-1.13
2023-02-11T03:48:12.969Z,-1.03
2023-02-11T03:51:04.218Z,-0.98
2023-02-11T03:53:54.060Z,-0.93
2023-02-11T03:56:46.716Z,-0.86
2023-02-11T03:59:55.466Z,-0.86
2023-02-11T04:02:44.126Z,-0.86
2023-02-11T04:05:33.161Z,-0.88
2023-02-11T04:08:21.948Z,-0.85
2023-02-11T04:11:10.646Z,-0.83
2023-02-11T04:13:59.110Z,-0.81
2023-02-11T04:16:48.922Z,-0.78
2023-02-11T04:19:37.481Z,-0.75
2023-02-11T04:22:25.946Z,-0.72
2023-02-11T04:25:14.541Z,-0.70
2023-02-11T04:28:03.134Z,-0.57
2023-02-11T04:30:52.065Z,-0.50
2023-02-11T04:33:41.886Z,-0.58
2023-02-11T04:36:30.271Z,-0.49
2023-02-11T04:39:18.779Z,-0.47
2023-02-11T04:42:07.426Z,-0.44
2023-02-11T04:44:55.894Z,-0.49
2023-02-11T04:47:44.472Z,-0.48
2023-02-11T04:50:34.316Z,-0.57
2023-02-11T04:53:22.777Z,-0.46
2023-02-11T04:56:11.283Z,-0.49
2023-02-11T04:58:59.767Z,-0.41
2023-02-11T05:01:48.302Z,-0.20
2023-02-11T05:04:36.838Z,-0.26
2023-02-11T05:07:26.713Z,-0.28
2023-02-11T05:10:15.299Z,-0.32
2023-02-11T05:13:03.862Z,-0.24
2023-02-11T05:15:52.646Z,-0.18
2023-02-11T05:18:42.103Z,-0.69
2023-02-11T05:21:30.571Z,-0.26
2023-02-11T05:24:20.796Z,-0.30
2023-02-11T05:27:09.313Z,-0.27
2023-02-11T05:29:58.077Z,-0.33
2023-02-11T05:32:46.587Z,-0.32
2023-02-11T05:35:35.040Z,-0.33
2023-02-11T05:38:23.542Z,-0.23
2023-02-11T05:41:13.485Z,-0.23
2023-02-11T05:44:02.033Z,-0.23
2023-02-11T05:46:50.486Z,-0.18
2023-02-11T05:49:38.993Z,-0.14
2023-02-11T05:52:27.482Z,-0.11
2023-02-11T05:55:16.108Z,-0.07
2023-02-11T05:58:05.985Z,-0.26
2023-02-11T06:00:54.448Z,0.04
2023-02-11T06:03:43.095Z,0.01
2023-02-11T06:06:31.612Z,0.04
2023-02-11T06:09:20.148Z,0.03
2023-02-11T06:12:08.823Z,0.03
2023-02-11T06:14:58.690Z,0.01
2023-02-11T06:17:47.165Z,0.06
2023-02-11T06:20:35.674Z,0.09
2023-02-11T06:23:24.209Z,0.17
2023-02-11T06:26:19.197Z,0.46
2023-02-11T06:29:07.664Z,0.41
2023-02-11T06:31:57.557Z,0.40
2023-02-11T06:34:46.329Z,0.44
2023-02-11T06:37:35.261Z,0.52
2023-02-11T06:40:23.786Z,0.57
2023-02-11T06:43:12.240Z,0.60
2023-02-11T06:46:00.753Z,0.80
2023-02-11T06:48:50.780Z,0.85
2023-02-11T06:51:39.267Z,0.86
2023-02-11T06:54:27.779Z,0.81
2023-02-11T06:57:16.208Z,0.84
2023-02-11T07:00:05.893Z,0.88
2023-02-11T07:02:54.471Z,0.90
2023-02-11T07:05:44.853Z,0.93
2023-02-11T07:08:34.230Z,0.80
2023-02-11T07:11:25.237Z,1.13
2023-02-11T07:14:14.322Z,1.17
2023-02-11T07:17:04.035Z,1.21
2023-02-11T07:19:52.524Z,1.19
2023-02-11T07:22:42.364Z,1.20
2023-02-11T07:25:30.780Z,0.48
2023-02-11T07:28:19.363Z,1.44
2023-02-11T07:31:08.971Z,1.46
2023-02-11T07:33:59.859Z,1.45
2023-02-11T07:36:48.962Z,1.43
2023-02-11T07:39:38.828Z,1.42
2023-02-11T07:42:27.316Z,1.38
2023-02-11T07:45:16.302Z,1.38
2023-02-11T07:48:05.126Z,1.41
2023-02-11T07:50:53.590Z,1.44
2023-02-11T07:53:42.228Z,1.41
2023-02-11T07:56:32.150Z,1.35
2023-02-11T07:59:20.708Z,1.43
2023-02-11T08:02:10.142Z,1.50
2023-02-11T08:04:58.589Z,1.49
2023-02-11T08:07:47.128Z,1.56
2023-02-11T08:10:35.573Z,1.68
2023-02-11T08:13:26.973Z,1.66
2023-02-11T08:16:20.147Z,1.83
2023-02-11T08:19:11.507Z,2.01
2023-02-11T08:22:01.198Z,2.26
2023-02-11T08:24:52.266Z,2.38
2023-02-11T08:27:40.874Z,2.52
2023-02-11T08:30:30.702Z,2.66
2023-02-11T08:33:19.190Z,2.77
2023-02-11T08:36:09.712Z,3.01
2023-02-11T08:39:15.865Z,2.85
2023-02-11T08:42:06.427Z,2.99
2023-02-11T08:44:54.926Z,3.02
2023-02-11T08:47:44.742Z,3.09
2023-02-11T08:50:33.188Z,3.30
2023-02-11T08:53:21.606Z,3.51
2023-02-11T08:56:13.395Z,3.74
2023-02-11T08:59:02.349Z,3.64
2023-02-11T09:01:51.125Z,3.85
2023-02-11T09:04:41.259Z,3.88
2023-02-11T09:07:29.853Z,3.79
2023-02-11T09:10:18.373Z,3.82
2023-02-11T09:13:07.561Z,3.73
2023-02-11T09:15:56.084Z,3.79
2023-02-11T09:18:45.657Z,3.81
2023-02-11T09:21:35.542Z,4.18
2023-02-11T09:24:24.050Z,4.38
2023-02-11T09:27:12.508Z,4.55
2023-02-11T09:30:01.000Z,4.84
2023-02-11T09:32:49.505Z,5.41
2023-02-11T09:35:38.015Z,5.86
2023-02-11T09:38:27.800Z,5.96
2023-02-11T09:41:44.896Z,5.97
2023-02-11T09:44:35.459Z,5.68
2023-02-11T09:47:30.752Z,5.44
2023-02-11T09:50:23.864Z,5.27
2023-02-11T09:53:17.809Z,5.15
2023-02-11T09:56:13.747Z,5.46
2023-02-11T09:59:02.298Z,5.62
2023-02-11T10:01:52.685Z,5.96
2023-02-11T10:04:59.781Z,6.30
2023-02-11T10:07:53.030Z,6.68
2023-02-11T10:10:48.955Z,7.08
2023-02-11T10:13:48.729Z,7.27
2023-02-11T10:16:48.973Z,7.33
2023-02-11T10:19:47.352Z,7.72
2023-02-11T10:22:37.907Z,7.73
2023-02-11T10:25:27.935Z,7.92
2023-02-11T10:28:19.079Z,7.83
2023-02-11T10:31:11.412Z,7.68
2023-02-11T10:34:01.912Z,7.57
2023-02-11T10:36:50.345Z,7.55
2023-02-11T10:39:39.861Z,7.59
2023-02-11T10:42:28.512Z,7.76
2023-02-11T10:45:24.933Z,8.00
2023-02-11T10:48:40.446Z,8.25
2023-02-11T10:51:29.836Z,8.32
2023-02-11T10:54:21.270Z,8.49
2023-02-11T10:57:19.759Z,8.60
2023-02-11T11:00:22.611Z,8.72
2023-02-11T11:03:18.602Z,8.79
2023-02-11T11:06:10.391Z,8.83
2023-02-11T11:08:59.012Z,8.81
2023-02-11T11:11:53.381Z,8.90
2023-02-11T11:14:41.917Z,9.02
2023-02-11T11:17:30.762Z,8.97
2023-02-11T11:20:24.837Z,8.85
2023-02-11T11:23:18.830Z,8.83
2023-02-11T11:26:10.119Z,8.98
2023-02-11T11:29:01.505Z,9.08
2023-02-11T11:31:52.899Z,9.25
2023-02-11T11:34:42.982Z,9.07
2023-02-11T11:37:33.173Z,9.03
2023-02-11T11:40:25.664Z,8.93
2023-02-11T11:43:23.037Z,8.96
2023-02-11T11:46:12.248Z,9.08
2023-02-11T11:49:23.343Z,9.18
2023-02-11T11:52:19.282Z,9.33
2023-02-11T11:55:15.469Z,8.90
2023-02-11T11:58:05.465Z,9.58
2023-02-11T12:00:59.772Z,9.62
2023-02-11T12:04:11.950Z,9.78
2023-02-11T12:07:20.797Z,9.75
2023-02-11T12:10:27.332Z,9.17
2023-02-11T12:13:42.040Z,9.67
2023-02-11T12:16:37.136Z,9.79
2023-02-11T12:19:52.367Z,9.89
2023-02-11T12:22:48.292Z,9.91
2023-02-11T12:25:42.569Z,9.92
2023-02-11T12:28:38.433Z,9.94
2023-02-11T12:31:32.556Z,9.34
2023-02-11T12:34:33.615Z,10.06
2023-02-11T12:37:31.636Z,10.07
2023-02-11T12:40:25.982Z,10.09
2023-02-11T12:43:21.338Z,10.09
2023-02-11T12:46:28.968Z,10.13
2023-02-11T12:49:28.618Z,10.18
2023-02-11T12:52:32.279Z,10.27
2023-02-11T12:55:23.005Z,10.26
2023-02-11T12:58:14.464Z,10.36
2023-02-11T13:01:06.758Z,10.25
2023-02-11T13:03:58.424Z,9.96
2023-02-11T13:06:51.377Z,10.22
2023-02-11T13:09:44.471Z,10.28
2023-02-11T13:12:51.399Z,10.32
2023-02-11T13:15:40.175Z,10.35
2023-02-11T13:18:49.994Z,10.35
2023-02-11T13:21:49.589Z,10.29
2023-02-11T13:24:44.787Z,10.37
2023-02-11T13:27:42.583Z,10.08
2023-02-11T13:30:35.375Z,10.06
2023-02-11T13:33:34.955Z,10.13
2023-02-11T13:36:25.169Z,10.33
2023-02-11T13:39:21.145Z,10.44
2023-02-11T13:42:18.066Z,10.29
2023-02-11T13:45:18.598Z,10.15
2023-02-11T13:48:10.017Z,10.08
2023-02-11T13:51:00.590Z,10.19
2023-02-11T13:53:51.539Z,10.24
2023-02-11T13:56:44.012Z,10.11
2023-02-11T13:59:47.512Z,9.86
2023-02-11T14:02:55.063Z,10.10
2023-02-11T14:06:31.669Z,9.94
2023-02-11T14:09:39.431Z,10.00
2023-02-11T14:12:44.100Z,9.89
2023-02-11T14:15:39.965Z,9.87
2023-02-11T14:18:55.732Z,10.09
2023-02-11T14:21:45.550Z,9.91
2023-02-11T14:24:49.841Z,9.80
2023-02-11T14:27:42.361Z,9.79
2023-02-11T14:30:42.840Z,9.75
2023-02-11T14:33:54.110Z,9.83
2023-02-11T14:37:00.033Z,9.79
2023-02-11T14:39:55.929Z,9.71
2023-02-11T14:42:44.791Z,9.72
2023-02-11T14:45:37.952Z,9.84
2023-02-11T14:48:30.517Z,9.78
2023-02-11T14:51:23.139Z,9.75
2023-02-11T14:54:15.127Z,9.71
2023-02-11T14:57:11.105Z,9.50
2023-02-11T15:00:02.580Z,9.57
2023-02-11T15:02:53.624Z,9.55
2023-02-11T15:05:42.126Z,9.50
2023-02-11T15:08:31.477Z,9.60
2023-02-11T15:11:22.289Z,9.62
2023-02-11T15:14:12.605Z,9.55
2023-02-11T15:17:03.668Z,9.59
2023-02-11T15:19:55.710Z,9.50
2023-02-11T15:22:45.131Z,9.55
2023-02-11T15:25:34.321Z,9.47
2023-02-11T15:28:24.757Z,9.38
2023-02-11T15:31:16.635Z,9.30
2023-02-11T15:34:08.805Z,9.28
2023-02-11T15:36:58.837Z,9.27
2023-02-11T15:39:47.471Z,9.16
2023-02-11T15:42:50.698Z,9.22
2023-02-11T15:45:42.960Z,9.12
2023-02-11T15:48:36.454Z,9.03
2023-02-11T15:51:29.439Z,9.04
2023-02-11T15:54:22.053Z,8.97
2023-02-11T15:57:11.379Z,8.83
2023-02-11T16:00:04.321Z,8.95
2023-02-11T16:02:53.667Z,8.86
2023-02-11T16:05:42.271Z,8.86
2023-02-11T16:08:34.629Z,8.84
2023-02-11T16:11:29.572Z,8.59
2023-02-11T16:14:23.876Z,8.81
2023-02-11T16:17:14.283Z,8.79
2023-02-11T16:20:02.778Z,7.99
2023-02-11T16:22:51.334Z,8.73
2023-02-11T16:25:43.393Z,8.72
2023-02-11T16:28:33.646Z,8.69
2023-02-11T16:31:22.212Z,8.67
2023-02-11T16:34:18.629Z,8.67
2023-02-11T16:37:07.493Z,8.68
2023-02-11T16:39:56.063Z,8.71
2023-02-11T16:42:44.546Z,8.73
2023-02-11T16:45:38.333Z,8.64
2023-02-11T16:48:26.794Z,8.69
2023-02-11T16:51:15.346Z,8.68
2023-02-11T16:54:03.843Z,8.73
2023-02-11T16:56:52.304Z,8.68
2023-02-11T16:59:40.744Z,8.73
2023-02-11T17:02:32.544Z,8.65
2023-02-11T17:05:23.272Z,8.63
2023-02-11T17:08:12.605Z,8.55
2023-02-11T17:11:01.100Z,8.50
2023-02-11T17:13:49.652Z,8.43
2023-02-11T17:16:40.661Z,8.35
2023-02-11T17:19:30.637Z,8.23
2023-02-11T17:22:19.453Z,8.23
2023-02-11T17:25:08.169Z,8.18
2023-02-11T17:27:56.786Z,8.11
2023-02-11T17:30:45.315Z,8.03
2023-02-11T17:33:36.113Z,7.98
2023-02-11T17:36:26.079Z,7.90
2023-02-11T17:39:15.054Z,7.86
2023-02-11T17:42:03.706Z,7.82
2023-02-11T17:44:52.138Z,7.78
2023-02-11T17:47:40.713Z,7.70
2023-02-11T17:50:29.585Z,7.63
2023-02-11T17:53:19.547Z,7.56
2023-02-11T17:56:10.178Z,7.51
2023-02-11T17:58:58.696Z,7.40
2023-02-11T18:01:47.763Z,7.38
2023-02-11T18:04:36.414Z,7.34
2023-02-11T18:07:25.242Z,7.30
2023-02-11T18:10:15.155Z,7.29
2023-02-11T18:13:03.607Z,7.26
2023-02-11T18:15:52.446Z,7.33
2023-02-11T18:18:41.096Z,7.35
2023-02-11T18:21:29.604Z,7.31
2023-02-11T18:24:18.162Z,7.28
2023-02-11T18:27:08.274Z,7.23
2023-02-11T18:29:56.910Z,7.22
2023-02-11T18:32:45.528Z,7.20
2023-02-11T18:35:34.068Z,7.21
2023-02-11T18:38:23.129Z,7.16
2023-02-11T18:41:11.938Z,6.59
2023-02-11T18:44:03.037Z,7.06
2023-02-11T18:46:52.290Z,7.09
2023-02-11T18:49:40.797Z,7.10
2023-02-11T18:52:29.298Z,6.89
2023-02-11T18:55:23.247Z,7.09
2023-02-11T18:58:12.458Z,7.07
2023-02-11T19:01:02.414Z,7.06
2023-02-11T19:03:51.581Z,7.06
2023-02-11T19:06:40.166Z,7.03
2023-02-11T19:09:28.752Z,7.01
2023-02-11T19:12:17.381Z,6.98
2023-02-11T19:15:07.592Z,6.87
2023-02-11T19:17:57.420Z,6.93
2023-02-11T19:20:46.001Z,6.90
2023-02-11T19:23:34.843Z,6.89
2023-02-11T19:26:24.784Z,6.88
2023-02-11T19:29:13.395Z,6.87
2023-02-11T19:32:02.186Z,6.87
2023-02-11T19:34:53.162Z,6.82
2023-02-11T19:37:41.747Z,6.87
2023-02-11T19:40:30.290Z,6.88
2023-02-11T19:43:18.824Z,6.87
2023-02-11T19:46:07.570Z,6.39
2023-02-11T19:48:56.160Z,6.80
2023-02-11T19:51:46.025Z,6.76
2023-02-11T19:54:34.616Z,6.74
2023-02-11T19:57:23.210Z,6.73
2023-02-11T20:00:12.739Z,6.85
2023-02-11T20:03:01.317Z,6.90
2023-02-11T20:05:50.532Z,6.84
2023-02-11T20:08:41.032Z,6.79
2023-02-11T20:11:30.557Z,6.79
2023-02-11T20:14:19.205Z,6.75
2023-02-11T20:17:07.713Z,6.73
2023-02-11T20:19:56.211Z,6.76
2023-02-11T20:22:44.731Z,6.77
2023-02-11T20:25:34.626Z,6.73
2023-02-11T20:28:23.254Z,6.75
2023-02-11T20:31:12.457Z,6.55
2023-02-11T20:34:01.472Z,6.62
2023-02-11T20:36:52.777Z,6.58
2023-02-11T20:39:42.024Z,6.57
2023-02-11T20:42:31.894Z,6.53
2023-02-11T20:45:20.409Z,6.47
2023-02-11T20:48:08.947Z,6.49
2023-02-11T20:50:57.448Z,6.42
2023-02-11T20:53:49.849Z,6.44
2023-02-11T20:56:39.634Z,6.43
2023-02-11T20:59:29.478Z,6.42
2023-02-11T21:02:18.397Z,6.40
2023-02-11T21:05:07.479Z,6.40
2023-02-11T21:07:55.982Z,6.37
2023-02-11T21:10:44.787Z,6.36
2023-02-11T21:13:33.895Z,6.39
2023-02-11T21:16:24.128Z,6.39
2023-02-11T21:19:13.280Z,6.31
2023-02-11T21:22:01.892Z,6.33
2023-02-11T21:24:50.436Z,6.26
2023-02-11T21:27:39.180Z,5.96
2023-02-11T21:30:27.729Z,6.24
2023-02-11T21:33:17.680Z,6.21
2023-02-11T21:36:08.285Z,6.17
2023-02-11T21:38:56.918Z,6.11
2023-02-11T21:41:45.489Z,6.11
2023-02-11T21:44:34.006Z,6.23
2023-02-11T21:47:22.535Z,6.09
2023-02-11T21:50:12.958Z,6.00
2023-02-11T21:53:01.487Z,6.03
2023-02-11T21:55:51.194Z,6.03
2023-02-11T21:58:39.868Z,5.97
2023-02-11T22:01:30.156Z,5.92
2023-02-11T22:04:18.745Z,5.81
2023-02-11T22:07:08.690Z,5.90
2023-02-11T22:09:57.183Z,5.86
2023-02-11T22:12:45.898Z,5.83
2023-02-11T22:15:34.432Z,5.83
2023-02-11T22:18:22.912Z,5.83
2023-02-11T22:21:16.695Z,5.79
2023-02-11T22:24:07.242Z,5.79
2023-02-11T22:26:55.754Z,5.87
2023-02-11T22:29:44.732Z,5.85
2023-02-11T22:32:33.212Z,5.83
2023-02-11T22:35:21.852Z,5.79
2023-02-11T22:38:10.348Z,5.75
2023-02-11T22:41:01.103Z,5.70
2023-02-11T22:43:50.142Z,5.72
2023-02-11T22:46:39.135Z,5.72
2023-02-11T22:49:28.927Z,5.50
2023-02-11T22:52:17.344Z,4.91
2023-02-11T22:55:07.074Z,5.69
2023-02-11T22:57:56.931Z,5.63
2023-02-11T23:00:45.433Z,5.68
2023-02-11T23:03:34.669Z,5.66
2023-02-11T23:06:23.176Z,5.63
2023-02-11T23:09:13.486Z,5.60
2023-02-11T23:12:02.011Z,5.70
2023-02-11T23:14:56.079Z,5.75
2023-02-11T23:17:44.539Z,5.68
2023-02-11T23:20:34.988Z,5.70
2023-02-11T23:23:23.482Z,5.63
2023-02-11T23:26:13.191Z,5.61
2023-02-11T23:29:01.899Z,5.54
2023-02-11T23:31:51.887Z,5.55
2023-02-11T23:34:40.446Z,5.56
2023-02-11T23:37:28.959Z,5.58
2023-02-11T23:40:17.573Z,5.58
2023-02-11T23:43:06.096Z,5.59
2023-02-11T23:45:54.809Z,5.60
2023-02-11T23:48:44.850Z,5.71
2023-02-11T23:51:33.331Z,5.77
2023-02-11T23:54:21.952Z,5.91
2023-02-11T23:57:10.381Z,5.74
2023-02-11T23:59:58.887Z,5.76
